Time;durP1;ratioP1;P1;durP2;ratioP2;P2;SDS_P1;SDS_P2;PMS_P1;PMS_P2;Temp;Humidity;BMP_temperature;BMP_pressure;BME280_temperature;BME280_humidity;BME280_pressure;Samples;Min_cycle;Max_cycle;Signal;HPM_P1;HPM_P2
2023/07/23 00:00:51;;;;;;;0.28;0.28;;;;;;;16.57;61.56;97223.97;5066089;28;20058;-69
2023/07/23 00:03:19;;;;;;;0.20;0.20;;;;;;;16.54;61.51;97227.94;5068673;28;20055;-69
2023/07/23 00:05:46;;;;;;;0.20;0.20;;;;;;;16.37;62.06;97219.03;5069283;28;20562;-69
2023/07/23 00:08:14;;;;;;;0.20;0.20;;;;;;;16.43;62.09;97220.75;5070339;28;20054;-69
2023/07/23 00:10:43;;;;;;;0.20;0.20;;;;;;;16.26;62.49;97212.63;5069840;28;20127;-68
2023/07/23 00:13:11;;;;;;;0.20;0.20;;;;;;;16.35;62.31;97211.19;5069603;28;20115;-68
2023/07/23 00:15:38;;;;;;;0.50;0.50;;;;;;;16.38;62.17;97205.31;5068785;28;20051;-69
2023/07/23 00:18:06;;;;;;;0.20;0.20;;;;;;;16.48;61.93;97199.28;5069499;28;20036;-69
2023/07/23 00:20:34;;;;;;;0.10;0.10;;;;;;;16.57;61.74;97211.31;5069603;28;20577;-70
2023/07/23 00:23:01;;;;;;;0.20;0.20;;;;;;;16.44;61.99;97211.59;5070789;28;20041;-70
2023/07/23 00:25:29;;;;;;;0.20;0.20;;;;;;;16.47;61.82;97211.94;5069449;28;20119;-70
2023/07/23 00:27:58;;;;;;;0.05;0.05;;;;;;;16.50;61.61;97206.09;5069844;28;20382;-69
2023/07/23 00:30:26;;;;;;;0.38;0.38;;;;;;;16.58;61.61;97207.56;5069048;28;20084;-70
2023/07/23 00:32:53;;;;;;;0.30;0.30;;;;;;;16.58;61.41;97207.56;5050001;28;20139;-69
2023/07/23 00:35:23;;;;;;;0.30;0.30;;;;;;;16.54;61.73;97201.00;5050694;28;20037;-68
2023/07/23 00:37:52;;;;;;;0.30;0.30;;;;;;;16.47;61.57;97201.16;5067939;28;20032;-69
2023/07/23 00:40:20;;;;;;;0.28;0.28;;;;;;;16.50;61.49;97208.78;5070599;28;20123;-68
2023/07/23 00:42:48;;;;;;;0.30;0.30;;;;;;;16.48;61.23;97204.69;5052698;28;20051;-68
2023/07/23 00:45:17;;;;;;;0.20;0.20;;;;;;;16.52;61.15;97200.44;5069053;28;20119;-68
2023/07/23 00:47:44;;;;;;;0.20;0.20;;;;;;;16.48;61.45;97201.97;5068966;28;20553;-68
2023/07/23 00:50:13;;;;;;;0.20;0.20;;;;;;;16.49;61.25;97206.31;5070185;28;20079;-69
2023/07/23 00:52:41;;;;;;;0.30;0.30;;;;;;;16.55;61.02;97197.25;5050681;28;20068;-69
2023/07/23 00:55:09;;;;;;;0.00;0.00;;;;;;;16.52;60.87;97195.03;5047700;28;20529;-69
2023/07/23 00:57:37;;;;;;;0.38;0.38;;;;;;;16.55;60.90;97188.34;5050763;28;20049;-69
2023/07/23 01:00:08;;;;;;;0.35;0.35;;;;;;;16.54;60.91;97187.53;5050241;28;20143;-68
2023/07/23 01:02:37;;;;;;;0.10;0.10;;;;;;;16.48;60.71;97192.03;5049511;28;20414;-69
2023/07/23 01:05:06;;;;;;;0.20;0.20;;;;;;;16.43;61.14;97191.09;5050515;28;20048;-68
2023/07/23 01:07:34;;;;;;;0.30;0.30;;;;;;;16.43;60.92;97191.91;5068324;28;20051;-68
2023/07/23 01:10:03;;;;;;;0.30;0.30;;;;;;;16.44;60.81;97187.34;5051405;28;20048;-68
2023/07/23 01:12:32;;;;;;;0.20;0.20;;;;;;;16.47;60.84;97184.19;5068620;28;20040;-68
2023/07/23 01:15:04;;;;;;;0.32;0.32;;;;;;;16.47;60.76;97185.00;5050897;28;20045;-69
2023/07/23 01:17:32;;;;;;;0.20;0.20;;;;;;;16.57;60.26;97176.28;5051305;28;20504;-70
2023/07/23 01:20:05;;;;;;;0.30;0.30;;;;;;;16.45;60.68;97179.03;5069478;28;20115;-70
2023/07/23 01:22:35;;;;;;;0.32;0.32;;;;;;;16.51;60.52;97169.97;5069455;28;20051;-70
2023/07/23 01:25:03;;;;;;;0.30;0.30;;;;;;;16.49;60.60;97172.13;5051683;28;20074;-69
2023/07/23 01:27:31;;;;;;;0.30;0.30;;;;;;;16.55;60.48;97173.00;5065037;28;20521;-68
2023/07/23 01:29:59;;;;;;;0.30;0.30;;;;;;;16.58;60.70;97169.00;5070396;28;20037;-69
2023/07/23 01:32:27;;;;;;;0.30;0.30;;;;;;;16.55;60.76;97169.50;5054795;28;20047;-69
2023/07/23 01:34:55;;;;;;;0.30;0.30;;;;;;;16.55;60.20;97164.09;5072638;28;20102;-72
2023/07/23 01:37:23;;;;;;;0.25;0.25;;;;;;;16.64;60.17;97155.41;5071944;28;20036;-69
2023/07/23 01:39:52;;;;;;;0.40;0.40;;;;;;;16.68;60.04;97159.25;5053208;28;20054;-70
2023/07/23 01:42:20;;;;;;;0.85;0.40;;;;;;;16.66;60.48;97155.16;5055820;28;20412;-69
2023/07/23 01:44:48;;;;;;;0.30;0.30;;;;;;;16.63;60.34;97148.38;5054455;28;20091;-70
2023/07/23 01:47:16;;;;;;;0.32;0.32;;;;;;;16.62;60.63;97149.44;5054012;28;20132;-69
2023/07/23 01:49:43;;;;;;;0.10;0.10;;;;;;;16.61;60.64;97157.75;5055453;28;20363;-70
2023/07/23 01:52:11;;;;;;;0.40;0.40;;;;;;;16.60;60.65;97150.72;5053713;28;20045;-69
2023/07/23 01:54:39;;;;;;;0.30;0.30;;;;;;;16.62;60.07;97148.63;5072229;28;20040;-70
2023/07/23 01:57:08;;;;;;;0.20;0.20;;;;;;;16.52;60.15;97150.06;5054196;28;20059;-69
2023/07/23 01:59:36;;;;;;;0.30;0.30;;;;;;;16.49;60.29;97153.25;5054705;28;20074;-69
2023/07/23 02:02:14;;;;;;;0.30;0.30;;;;;;;16.47;60.15;97143.78;5071315;28;20043;-69
2023/07/23 02:04:42;;;;;;;0.30;0.30;;;;;;;16.55;60.14;97148.75;5071431;28;20044;-69
2023/07/23 02:07:11;;;;;;;0.20;0.20;;;;;;;16.60;60.10;97145.34;5054632;28;20037;-69
2023/07/23 02:09:39;;;;;;;0.43;0.43;;;;;;;16.57;59.96;97153.91;5053641;28;20045;-69
2023/07/23 02:12:09;;;;;;;0.32;0.32;;;;;;;16.60;59.81;97159.63;5054226;28;20484;-69
2023/07/23 02:14:36;;;;;;;0.30;0.30;;;;;;;16.50;60.01;97156.75;5070797;28;20048;-69
2023/07/23 02:17:06;;;;;;;0.30;0.30;;;;;;;16.52;60.01;97154.63;5052848;28;20044;-71
2023/07/23 02:19:34;;;;;;;0.10;0.10;;;;;;;16.51;60.05;97152.97;5053848;28;20557;-69
2023/07/23 02:22:01;;;;;;;0.30;0.30;;;;;;;16.44;60.14;97152.31;5054135;28;20041;-69
2023/07/23 02:24:29;;;;;;;0.32;0.32;;;;;;;16.49;60.35;97155.94;5053356;28;20057;-69
2023/07/23 02:26:57;;;;;;;0.30;0.30;;;;;;;16.43;60.61;97164.97;5054343;28;20067;-68
2023/07/23 02:29:26;;;;;;;0.38;0.38;;;;;;;16.47;60.34;97154.53;5051726;28;20147;-68
2023/07/23 02:31:54;;;;;;;0.35;0.35;;;;;;;16.53;60.02;97150.88;5054113;28;20044;-68
2023/07/23 02:34:22;;;;;;;0.22;0.22;;;;;;;16.53;60.18;97148.19;5052316;28;20076;-69
2023/07/23 02:36:50;;;;;;;0.28;0.28;;;;;;;16.59;59.87;97149.91;5072497;28;20082;-69
2023/07/23 02:39:18;;;;;;;0.40;0.40;;;;;;;16.61;59.46;97150.47;5071384;28;20040;-69
2023/07/23 02:41:45;;;;;;;0.35;0.35;;;;;;;16.60;59.79;97150.72;5052804;28;20048;-69
2023/07/23 02:44:13;;;;;;;0.22;0.22;;;;;;;16.55;59.68;97153.31;5072302;28;20118;-69
2023/07/23 02:46:42;;;;;;;0.20;0.20;;;;;;;16.64;59.51;97150.00;5071333;28;20052;-70
2023/07/23 02:49:10;;;;;;;0.22;0.22;;;;;;;16.68;59.42;97156.56;5053676;28;20040;-70
2023/07/23 02:51:37;;;;;;;0.30;0.30;;;;;;;16.67;59.39;97165.72;5053711;28;20131;-70
2023/07/23 02:54:05;;;;;;;0.30;0.30;;;;;;;16.64;59.58;97162.66;5053206;28;20044;-70
2023/07/23 02:56:33;;;;;;;0.28;0.28;;;;;;;16.62;59.39;97162.09;5071318;28;20042;-70
2023/07/23 02:59:01;;;;;;;0.30;0.30;;;;;;;16.59;59.58;97154.47;5050196;28;20109;-70
2023/07/23 03:01:29;;;;;;;0.30;0.30;;;;;;;16.62;59.61;97162.91;5052493;28;20072;-69
2023/07/23 03:03:59;;;;;;;0.32;0.32;;;;;;;16.71;59.28;97160.66;5048184;28;20047;-70
2023/07/23 03:06:26;;;;;;;0.20;0.20;;;;;;;16.64;59.30;97160.78;5052702;28;20581;-69
2023/07/23 03:08:54;;;;;;;0.22;0.22;;;;;;;16.67;59.41;97160.31;5053140;28;20129;-69
2023/07/23 03:11:22;;;;;;;0.28;0.28;;;;;;;16.68;59.21;97153.06;5053357;28;20044;-69
2023/07/23 03:13:50;;;;;;;0.30;0.30;;;;;;;16.73;59.09;97150.41;5071501;28;20048;-69
2023/07/23 03:16:17;;;;;;;0.35;0.35;;;;;;;16.78;59.17;97154.03;5053545;28;20047;-70
2023/07/23 03:18:45;;;;;;;0.35;0.35;;;;;;;16.79;59.18;97150.28;5053104;28;20051;-69
2023/07/23 03:21:14;;;;;;;0.30;0.30;;;;;;;16.82;58.97;97144.38;5058406;28;20045;-69
2023/07/23 03:23:44;;;;;;;0.10;0.10;;;;;;;16.84;58.78;97138.75;5055106;28;20049;-70
2023/07/23 03:26:12;;;;;;;0.22;0.22;;;;;;;16.82;58.81;97133.59;5075078;28;20044;-70
2023/07/23 03:28:40;;;;;;;0.22;0.22;;;;;;;16.82;58.74;97136.28;5075362;28;20051;-70
2023/07/23 03:31:08;;;;;;;0.30;0.30;;;;;;;16.81;58.68;97141.94;5058000;28;20123;-70
2023/07/23 03:33:36;;;;;;;0.20;0.20;;;;;;;16.75;58.78;97132.94;5056659;28;20117;-70
2023/07/23 03:36:04;;;;;;;0.20;0.20;;;;;;;16.79;58.65;97139.50;5056007;28;20072;-70
2023/07/23 03:38:33;;;;;;;0.30;0.30;;;;;;;16.75;58.96;97137.53;5073014;28;20110;-70
2023/07/23 03:41:01;;;;;;;0.30;0.30;;;;;;;16.78;58.86;97143.25;5072903;28;20136;-70
2023/07/23 03:43:29;;;;;;;0.22;0.22;;;;;;;16.75;58.82;97132.94;5055448;28;20051;-70
2023/07/23 03:45:56;;;;;;;0.40;0.40;;;;;;;16.82;58.71;97133.59;5072278;28;20051;-70
2023/07/23 03:48:24;;;;;;;0.28;0.28;;;;;;;16.76;58.69;97139.97;5073673;28;20107;-70
2023/07/23 03:50:52;;;;;;;0.30;0.30;;;;;;;16.81;58.74;97134.69;5069763;28;20036;-69
2023/07/23 03:53:19;;;;;;;0.13;0.13;;;;;;;16.87;58.42;97128.28;5070483;28;20405;-69
2023/07/23 03:55:48;;;;;;;0.32;0.32;;;;;;;16.85;58.41;97133.13;5070536;28;20052;-69
2023/07/23 03:58:16;;;;;;;0.30;0.30;;;;;;;16.86;58.55;97132.06;5051976;28;20048;-70
2023/07/23 04:00:44;;;;;;;0.13;0.13;;;;;;;16.95;58.36;97132.44;5069407;28;20477;-69
2023/07/23 04:03:12;;;;;;;0.30;0.30;;;;;;;16.96;58.32;97134.09;5069911;28;20047;-69
2023/07/23 04:05:40;;;;;;;0.28;0.28;;;;;;;16.96;58.02;97135.97;5068852;28;20036;-69
2023/07/23 04:08:08;;;;;;;0.20;0.20;;;;;;;16.98;57.88;97133.84;5051788;28;20127;-68
2023/07/23 04:10:37;;;;;;;0.20;0.20;;;;;;;16.99;58.15;97132.78;5051772;28;20674;-69
2023/07/23 04:13:06;;;;;;;0.30;0.30;;;;;;;17.03;57.83;97134.72;5051475;28;20068;-69
2023/07/23 04:15:36;;;;;;;0.30;0.30;;;;;;;17.06;57.59;97134.25;5069488;28;20051;-68
2023/07/23 04:18:12;;;;;;;0.30;0.30;;;;;;;17.16;57.46;97126.28;5070424;28;20048;-69
2023/07/23 04:20:40;;;;;;;0.30;0.30;;;;;;;17.15;57.32;97127.34;5070484;28;20059;-69
2023/07/23 04:23:07;;;;;;;0.22;0.22;;;;;;;17.17;57.19;97132.50;5068920;28;20032;-69
2023/07/23 04:25:35;;;;;;;0.30;0.30;;;;;;;17.15;57.38;97126.53;5069416;28;20550;-69
2023/07/23 04:28:03;;;;;;;0.40;0.40;;;;;;;17.17;57.59;97133.31;5070304;28;20040;-69
2023/07/23 04:30:33;;;;;;;0.25;0.25;;;;;;;17.11;57.68;97134.34;5067618;28;20528;-68
2023/07/23 04:33:01;;;;;;;0.20;0.20;;;;;;;17.12;58.07;97130.56;5068717;28;20517;-69
2023/07/23 04:35:29;;;;;;;0.22;0.22;;;;;;;17.12;58.24;97133.28;5066725;28;20060;-69
2023/07/23 04:37:57;;;;;;;0.30;0.30;;;;;;;17.12;58.42;97133.28;5069170;28;20155;-69
2023/07/23 04:40:24;;;;;;;0.30;0.30;;;;;;;17.16;58.21;97130.88;5050169;28;20040;-69
2023/07/23 04:42:52;;;;;;;0.30;0.30;;;;;;;17.12;58.41;97127.06;5051882;28;20508;-69
2023/07/23 04:45:20;;;;;;;0.38;0.38;;;;;;;17.18;58.24;97139.53;5068109;28;20059;-69
2023/07/23 04:47:49;;;;;;;0.28;0.28;;;;;;;17.18;58.39;97134.97;5069669;28;20041;-68
2023/07/23 04:50:17;;;;;;;0.20;0.20;;;;;;;17.20;58.01;97130.13;5067644;28;20040;-70
2023/07/23 04:52:46;;;;;;;0.20;0.20;;;;;;;17.23;58.17;97134.22;5069125;28;20131;-69
2023/07/23 04:55:14;;;;;;;0.30;0.30;;;;;;;17.32;57.74;97131.91;5068435;28;20520;-70
2023/07/23 04:57:42;;;;;;;0.20;0.20;;;;;;;17.28;57.84;97134.28;5068696;28;20044;-70
2023/07/23 05:00:11;;;;;;;0.40;0.40;;;;;;;17.30;57.54;97134.03;5068196;28;20494;-70
2023/07/23 05:02:38;;;;;;;0.10;0.10;;;;;;;17.34;57.27;97140.59;5068244;28;20434;-70
2023/07/23 05:05:08;;;;;;;0.22;0.22;;;;;;;17.37;56.60;97134.66;5068849;28;20530;-70
2023/07/23 05:07:36;;;;;;;0.30;0.30;;;;;;;17.37;56.65;97134.66;5067605;28;20521;-70
2023/07/23 05:10:04;;;;;;;0.20;0.20;;;;;;;17.51;56.88;97138.66;5068852;28;20064;-71
2023/07/23 05:12:32;;;;;;;0.28;0.28;;;;;;;17.51;56.86;97144.88;5068742;28;20131;-71
2023/07/23 05:15:10;;;;;;;0.20;0.20;;;;;;;17.54;56.50;97136.28;5066985;28;20690;-69
2023/07/23 05:17:38;;;;;;;0.25;0.25;;;;;;;17.61;56.13;97136.09;5067287;28;20055;-69
2023/07/23 05:20:09;;;;;;;0.35;0.35;;;;;;;17.66;55.92;97136.16;5066676;28;20044;-70
2023/07/23 05:22:38;;;;;;;0.30;0.30;;;;;;;17.74;55.88;97138.44;5067488;28;20041;-70
2023/07/23 05:25:06;;;;;;;0.22;0.22;;;;;;;17.76;55.51;97130.06;5067900;28;20474;-70
2023/07/23 05:27:34;;;;;;;0.30;0.30;;;;;;;17.72;55.76;97135.19;5068633;28;20059;-69
2023/07/23 05:30:03;;;;;;;0.30;0.30;;;;;;;17.78;55.71;97128.75;5068310;28;20041;-70
2023/07/23 05:32:31;;;;;;;0.40;0.40;;;;;;;17.91;55.40;97131.09;5069417;28;20494;-70
2023/07/23 05:34:59;;;;;;;0.30;0.30;;;;;;;17.92;55.45;97131.91;5067885;28;20051;-70
2023/07/23 05:37:28;;;;;;;0.38;0.38;;;;;;;17.99;55.27;97140.63;5068607;28;20044;-69
2023/07/23 05:39:55;;;;;;;0.25;0.25;;;;;;;18.07;54.97;97147.44;5056065;28;20047;-69
2023/07/23 05:42:23;;;;;;;0.28;0.28;;;;;;;18.06;55.05;97135.84;5068968;28;20116;-70
2023/07/23 05:44:51;;;;;;;0.20;0.20;;;;;;;18.14;55.09;97135.41;5071129;28;20049;-70
2023/07/23 05:47:21;;;;;;;0.30;0.30;;;;;;;18.17;54.76;97129.47;5067703;28;20098;-70
2023/07/23 05:49:49;;;;;;;0.32;0.32;;;;;;;18.21;54.78;97130.59;5067732;28;20079;-70
2023/07/23 05:52:16;;;;;;;0.43;0.43;;;;;;;18.29;54.75;97127.44;5067133;28;20044;-69
2023/07/23 05:54:45;;;;;;;0.30;0.30;;;;;;;18.36;54.70;97126.44;5067540;28;20210;-69
2023/07/23 05:57:14;;;;;;;0.00;0.00;;;;;;;18.42;54.72;97128.91;5068701;28;20539;-69
2023/07/23 05:59:42;;;;;;;0.20;0.20;;;;;;;18.48;54.50;97119.75;5066000;28;20037;-69
2023/07/23 06:02:10;;;;;;;0.20;0.20;;;;;;;18.57;54.45;97114.72;5066299;28;20119;-70
2023/07/23 06:04:38;;;;;;;0.30;0.30;;;;;;;18.67;53.63;97115.66;5066463;28;20123;-70
2023/07/23 06:07:06;;;;;;;0.20;0.20;;;;;;;18.76;53.47;97110.59;5068163;28;20047;-70
2023/07/23 06:09:33;;;;;;;0.20;0.20;;;;;;;18.87;53.11;97111.50;5068998;28;20094;-69
2023/07/23 06:12:03;;;;;;;0.20;0.20;;;;;;;18.97;52.75;97108.84;5069128;28;20050;-69
2023/07/23 06:14:30;;;;;;;0.30;0.30;;;;;;;19.05;52.58;97105.66;5065944;28;20078;-70
2023/07/23 06:16:58;;;;;;;0.30;0.30;;;;;;;19.14;52.16;97090.56;5069973;28;20051;-70
2023/07/23 06:19:26;;;;;;;0.20;0.20;;;;;;;19.23;51.97;97105.22;5071893;28;20613;-70
2023/07/23 06:21:54;;;;;;;0.30;0.30;;;;;;;19.35;51.52;97092.31;5071604;28;20079;-69
2023/07/23 06:24:21;;;;;;;0.20;0.20;;;;;;;19.41;51.27;97096.66;5068530;28;20040;-70
2023/07/23 06:26:49;;;;;;;0.22;0.22;;;;;;;19.51;50.71;97095.13;5070356;28;20051;-70
2023/07/23 06:29:18;;;;;;;0.30;0.30;;;;;;;19.60;50.44;97099.78;5072202;28;20451;-71
2023/07/23 07:00:24;;;;;;;0.10;0.10;;;;;;;20.89;46.43;97087.81;5146589;27;20417;-70
2023/07/23 07:02:51;;;;;;;0.00;0.00;;;;;;;21.00;46.76;97074.22;5120902;22;20111;-72
2023/07/23 07:05:19;;;;;;;0.10;0.10;;;;;;;21.10;46.48;97071.50;5081553;28;20131;-72
2023/07/23 07:07:47;;;;;;;0.10;0.10;;;;;;;21.20;46.23;97071.50;5082686;28;20055;-72
2023/07/23 07:10:14;;;;;;;0.10;0.10;;;;;;;21.31;45.35;97075.81;5084125;28;20044;-71
2023/07/23 07:12:42;;;;;;;0.10;0.10;;;;;;;21.49;44.91;97077.94;5088829;28;20119;-72
2023/07/23 07:15:11;;;;;;;0.10;0.10;;;;;;;21.60;43.97;97067.84;5095215;28;20040;-71
2023/07/23 07:17:40;;;;;;;0.10;0.10;;;;;;;21.74;44.21;97076.22;5090659;28;20050;-71
2023/07/23 07:20:08;;;;;;;0.03;0.03;;;;;;;21.81;43.92;97074.81;5092405;28;20048;-71
2023/07/23 07:22:36;;;;;;;0.10;0.10;;;;;;;21.92;43.70;97079.09;5091198;28;20390;-72
2023/07/23 07:25:04;;;;;;;0.00;0.00;;;;;;;22.04;43.66;97072.53;5092597;28;20051;-71
2023/07/23 07:27:32;;;;;;;0.10;0.10;;;;;;;22.08;43.75;97073.63;5094596;28;20123;-71
2023/07/23 07:29:59;;;;;;;0.10;0.10;;;;;;;22.13;43.33;97073.56;5091979;28;20070;-71
2023/07/23 07:32:28;;;;;;;0.08;0.08;;;;;;;22.13;43.15;97071.66;5084176;28;20063;-73
2023/07/23 07:34:57;;;;;;;0.10;0.10;;;;;;;22.20;42.81;97072.19;5090630;28;20109;-70
2023/07/23 07:37:25;;;;;;;0.10;0.10;;;;;;;22.26;42.51;97062.91;5091671;28;20121;-72
2023/07/23 07:39:53;;;;;;;0.03;0.03;;;;;;;22.37;42.46;97070.97;5092881;28;20043;-71
2023/07/23 07:42:21;;;;;;;0.10;0.10;;;;;;;22.43;42.49;97064.41;5084392;28;20051;-71
2023/07/23 07:44:48;;;;;;;0.00;0.00;;;;;;;22.60;41.77;97060.19;5098529;28;20696;-70
2023/07/23 07:47:16;;;;;;;0.00;0.00;;;;;;;22.65;41.32;97068.31;5093704;28;20044;-71
2023/07/23 07:49:44;;;;;;;0.03;0.03;;;;;;;22.61;41.16;97050.13;5088472;28;20374;-70
2023/07/23 07:52:13;;;;;;;0.00;0.00;;;;;;;22.58;41.74;97061.56;5093890;28;20028;-70
2023/07/23 07:54:40;;;;;;;0.00;0.00;;;;;;;22.69;41.91;97072.09;5097314;28;20052;-71
2023/07/23 07:57:09;;;;;;;0.00;0.00;;;;;;;22.87;41.48;97065.16;5095185;28;20051;-71
2023/07/23 07:59:37;;;;;;;0.03;0.03;;;;;;;23.01;41.21;97059.84;5086187;28;20048;-70
2023/07/23 08:02:06;;;;;;;0.00;0.00;;;;;;;22.94;41.13;97078.44;5077073;28;20069;-70
2023/07/23 08:04:35;;;;;;;0.00;0.00;;;;;;;23.12;40.54;97063.28;5080194;28;20039;-70
2023/07/23 08:07:03;;;;;;;0.00;0.00;;;;;;;23.32;40.40;97053.00;5075779;28;20044;-70
2023/07/23 08:09:33;;;;;;;0.00;0.00;;;;;;;23.46;40.27;97053.13;5069192;28;20420;-71
2023/07/23 08:12:01;;;;;;;0.10;0.10;;;;;;;23.60;39.83;97048.59;5080087;28;20048;-71
2023/07/23 08:14:33;;;;;;;0.03;0.03;;;;;;;23.72;40.03;97051.72;5070143;28;20185;-71
2023/07/23 08:17:01;;;;;;;;;;;;;;;23.53;39.38;97048.16;5082249;28;20055;-71
2023/07/23 08:19:29;;;;;;;0.00;0.00;;;;;;;23.45;39.82;97045.22;5078353;28;19928;-71
2023/07/23 08:21:56;;;;;;;0.00;0.00;;;;;;;23.44;39.73;97055.31;5077496;28;20127;-71
2023/07/23 08:24:25;;;;;;;0.05;0.05;;;;;;;23.32;40.33;97046.72;5079189;28;20036;-71
2023/07/23 08:26:56;;;;;;;0.10;0.10;;;;;;;23.43;40.18;97051.78;5078183;28;20040;-71
2023/07/23 08:29:25;;;;;;;0.00;0.00;;;;;;;23.58;40.01;97034.44;5076072;28;20052;-71
2023/07/23 08:31:54;;;;;;;0.00;0.00;;;;;;;23.89;39.78;97040.31;5078789;28;20056;-71
2023/07/23 08:34:23;;;;;;;0.20;0.20;;;;;;;24.04;38.85;97048.28;5083398;28;20418;-71
2023/07/23 08:36:51;;;;;;;0.00;0.00;;;;;;;24.12;38.37;97035.91;5076440;28;20493;-71
2023/07/23 08:39:19;;;;;;;0.10;0.10;;;;;;;24.34;38.75;97057.97;5076504;28;20036;-71
2023/07/23 08:42:11;;;;;;;0.00;0.00;;;;;;;24.22;38.52;97040.41;5079788;28;20044;-71
2023/07/23 08:45:13;;;;;;;0.10;0.10;;;;;;;24.08;39.04;97056.69;5080968;28;20068;-71
2023/07/23 08:47:41;;;;;;;;;;;;;;;24.17;38.81;97059.56;5081006;28;20045;-71
2023/07/23 08:50:09;;;;;;;0.10;0.10;;;;;;;24.17;38.21;97049.47;5077883;28;19956;-71
2023/07/23 08:52:37;;;;;;;0.00;0.00;;;;;;;24.22;38.12;97040.41;5078833;28;20043;-70
2023/07/23 08:55:07;;;;;;;0.00;0.00;;;;;;;24.51;37.02;97041.84;5068756;28;20056;-71
2023/07/23 08:57:36;;;;;;;0.00;0.00;;;;;;;24.70;36.58;97044.56;5080224;28;20050;-71
2023/07/23 09:00:06;;;;;;;0.00;0.00;;;;;;;24.54;36.93;97031.47;5082871;28;20123;-70
2023/07/23 09:02:34;;;;;;;0.00;0.00;;;;;;;24.49;36.52;97030.44;5077898;28;20485;-73
2023/07/23 09:05:02;;;;;;;0.00;0.00;;;;;;;24.81;36.29;97010.50;5085830;28;20056;-71
2023/07/23 09:07:33;;;;;;;0.10;0.10;;;;;;;25.03;36.62;97019.97;5080496;28;20623;-71
2023/07/23 09:10:00;;;;;;;0.10;0.10;;;;;;;25.36;36.17;97026.19;5080913;28;20040;-71
2023/07/23 09:12:29;;;;;;;0.00;0.00;;;;;;;25.45;35.87;97016.16;5076652;28;20079;-73
2023/07/23 09:15:04;;;;;;;0.00;0.00;;;;;;;25.55;35.67;97024.94;5077905;28;20521;-72
2023/07/23 09:17:32;;;;;;;0.20;0.20;;;;;;;25.72;35.55;97018.91;5075678;28;20303;-73
2023/07/23 09:19:59;;;;;;;0.40;0.40;;;;;;;25.59;35.85;97017.78;5077040;28;20442;-73
2023/07/23 09:22:31;;;;;;;0.10;0.10;;;;;;;25.72;35.52;97012.63;5078573;28;20110;-71
2023/07/23 09:25:00;;;;;;;0.00;0.00;;;;;;;25.48;36.20;97027.28;5080054;28;20122;-71
2023/07/23 09:27:35;;;;;;;0.00;0.00;;;;;;;25.63;35.99;97015.28;5076035;28;20043;-73
2023/07/23 09:30:05;;;;;;;0.00;0.00;;;;;;;25.49;36.23;97011.69;5074665;28;20045;-73
2023/07/23 09:32:32;;;;;;;0.10;0.10;;;;;;;25.68;35.13;97014.34;5077180;28;20049;-70
2023/07/23 09:35:02;;;;;;;0.13;0.10;;;;;;;25.77;33.40;97043.41;5077303;28;20036;-71
2023/07/23 09:37:30;;;;;;;0.00;0.00;;;;;;;25.76;32.28;97019.91;5077047;28;20059;-73
2023/07/23 09:39:58;;;;;;;0.10;0.10;;;;;;;26.09;32.30;97008.78;5074219;28;20041;-72
2023/07/23 09:42:26;;;;;;;0.05;0.05;;;;;;;26.14;31.78;97017.69;5074780;28;20044;-73
2023/07/23 09:44:54;;;;;;;0.00;0.00;;;;;;;26.22;31.23;97021.63;5079176;28;20050;-72
2023/07/23 09:47:25;;;;;;;0.00;0.00;;;;;;;26.16;31.87;97017.38;5075433;28;20047;-73
2023/07/23 09:49:53;;;;;;;0.00;0.00;;;;;;;26.19;32.22;97011.28;5074058;28;20048;-73
2023/07/23 09:52:23;;;;;;;0.00;0.00;;;;;;;26.34;32.24;97016.44;5074762;28;20059;-73
2023/07/23 09:54:52;;;;;;;0.10;0.10;;;;;;;26.38;31.73;97019.34;5076353;28;20493;-73
2023/07/23 09:57:21;;;;;;;0.00;0.00;;;;;;;26.26;31.36;96996.06;5075643;28;20064;-71
2023/07/23 09:59:49;;;;;;;0.00;0.00;;;;;;;25.82;32.05;97002.28;5073238;28;20052;-71
2023/07/23 10:02:17;;;;;;;0.00;0.00;;;;;;;25.83;31.69;97025.78;5073378;28;20514;-71
2023/07/23 10:04:46;;;;;;;0.00;0.00;;;;;;;25.80;30.90;96998.22;5076852;28;20123;-71
2023/07/23 10:07:15;;;;;;;0.00;0.00;;;;;;;25.77;31.09;96994.16;5066713;28;20602;-71
2023/07/23 10:09:42;;;;;;;0.00;0.00;;;;;;;25.71;31.69;97009.06;5072578;28;20062;-71
2023/07/23 10:12:10;;;;;;;0.00;0.00;;;;;;;25.90;31.13;97007.00;5073231;28;20043;-72
2023/07/23 10:14:38;;;;;;;0.00;0.00;;;;;;;25.95;31.39;97006.91;5075675;28;20036;-72
2023/07/23 10:17:06;;;;;;;0.10;0.10;;;;;;;26.18;31.09;97009.66;5073992;28;20397;-72
2023/07/23 10:19:35;;;;;;;0.00;0.00;;;;;;;26.01;30.57;97007.59;5072399;28;20048;-72
2023/07/23 10:22:05;;;;;;;0.00;0.00;;;;;;;25.92;30.66;97007.53;5075148;28;20123;-72
2023/07/23 10:24:38;;;;;;;0.00;0.00;;;;;;;25.81;31.66;97008.84;5074370;28;20389;-72
2023/07/23 10:27:10;;;;;;;0.00;0.00;;;;;;;25.64;32.22;97014.16;5074763;28;20040;-72
2023/07/23 10:29:38;;;;;;;0.10;0.10;;;;;;;25.44;32.25;97015.34;5073527;28;20464;-72
2023/07/23 10:32:26;;;;;;;0.00;0.00;;;;;;;25.04;32.61;97010.66;5073781;28;20048;-72
2023/07/23 10:34:54;;;;;;;0.10;0.10;;;;;;;24.88;32.99;97010.13;5073208;28;20048;-72
2023/07/23 10:37:24;;;;;;;0.00;0.00;;;;;;;24.51;33.70;97016.47;5073355;28;20040;-72
2023/07/23 10:39:55;;;;;;;0.00;0.00;;;;;;;24.59;34.00;97015.00;5074652;28;20115;-72
2023/07/23 10:42:40;;;;;;;0.00;0.00;;;;;;;24.57;34.25;97014.50;5076442;28;20067;-71
2023/07/23 10:45:23;;;;;;;0.05;0.05;;;;;;;24.44;34.19;97025.06;5073798;28;20389;-71
2023/07/23 10:47:52;;;;;;;0.10;0.10;;;;;;;24.38;34.71;97014.53;5073932;28;20129;-71
2023/07/23 10:50:21;;;;;;;0.00;0.00;;;;;;;24.46;34.25;97003.75;5074811;28;20039;-71
2023/07/23 10:52:52;;;;;;;0.00;0.00;;;;;;;24.53;34.53;97019.72;5072541;28;20055;-71
2023/07/23 10:55:45;;;;;;;0.00;0.00;;;;;;;24.65;34.73;97011.06;5074217;28;20124;-71
2023/07/23 10:58:13;;;;;;;0.00;0.00;;;;;;;24.65;34.54;97005.63;5076290;28;20036;-73
2023/07/23 11:00:43;;;;;;;0.05;0.05;;;;;;;24.51;34.63;97009.09;5071614;28;20051;-73
2023/07/23 11:03:12;;;;;;;0.00;0.00;;;;;;;24.59;34.22;97013.09;5073634;28;20485;-73
2023/07/23 11:05:42;;;;;;;0.00;0.00;;;;;;;24.50;34.26;97009.44;5072365;28;20533;-72
2023/07/23 11:08:18;;;;;;;0.00;0.00;;;;;;;24.50;34.18;97015.66;5074372;28;20532;-72
2023/07/23 11:10:48;;;;;;;0.00;0.00;;;;;;;24.51;34.80;97011.84;5073922;28;20128;-72
2023/07/23 11:13:16;;;;;;;0.00;0.00;;;;;;;24.56;34.50;96996.50;5072597;28;20048;-72
2023/07/23 11:15:45;;;;;;;0.00;0.00;;;;;;;24.64;34.04;97004.00;5072721;28;20481;-72
2023/07/23 11:18:13;;;;;;;0.00;0.00;;;;;;;24.58;34.19;96988.81;5065014;28;20048;-72
2023/07/23 11:20:45;;;;;;;0.00;0.00;;;;;;;24.61;34.17;96974.56;5072664;28;20048;-72
2023/07/23 11:23:14;;;;;;;0.10;0.10;;;;;;;24.68;34.12;96983.19;5065695;28;20044;-72
2023/07/23 11:25:42;;;;;;;0.00;0.00;;;;;;;24.68;33.98;96977.72;5075127;28;20043;-72
2023/07/23 11:28:10;;;;;;;0.00;0.00;;;;;;;24.74;33.66;96976.50;5072564;28;20114;-72
2023/07/23 11:30:38;;;;;;;0.00;0.00;;;;;;;24.89;33.51;96976.25;5071927;28;20041;-72
2023/07/23 11:33:06;;;;;;;0.00;0.00;;;;;;;24.96;33.32;96982.16;5074615;28;20097;-72
2023/07/23 11:35:34;;;;;;;0.00;0.00;;;;;;;25.04;32.46;96953.31;5081235;28;20047;-73
2023/07/23 11:38:06;;;;;;;0.00;0.00;;;;;;;25.10;32.45;96952.13;5070455;28;20599;-73
2023/07/23 11:40:35;;;;;;;0.00;0.00;;;;;;;25.15;32.66;96950.06;5075949;28;20041;-73
2023/07/23 11:43:04;;;;;;;0.00;0.00;;;;;;;25.17;33.11;96952.50;5077972;28;20050;-73
2023/07/23 11:45:31;;;;;;;0.10;0.10;;;;;;;25.18;32.91;96951.41;5075577;28;20045;-73
2023/07/23 11:47:59;;;;;;;0.10;0.10;;;;;;;25.32;32.54;96948.66;5077850;28;20040;-73
2023/07/23 11:50:29;;;;;;;0.10;0.10;;;;;;;25.61;32.38;96927.28;5077287;28;20037;-72
2023/07/23 11:53:04;;;;;;;0.00;0.00;;;;;;;26.08;31.34;96920.41;5077357;28;20120;-72
2023/07/23 11:55:33;;;;;;;0.00;0.00;;;;;;;26.47;30.85;96936.19;5076778;28;20037;-73
2023/07/23 11:58:01;;;;;;;0.00;0.00;;;;;;;26.27;31.16;96923.78;5070119;28;20135;-73
2023/07/23 12:00:31;;;;;;;0.00;0.00;;;;;;;26.23;30.45;96921.97;5077304;28;20059;-72
2023/07/23 12:02:59;;;;;;;0.00;0.00;;;;;;;26.53;30.03;96921.22;5078291;28;20048;-73
2023/07/23 12:05:27;;;;;;;0.08;0.05;;;;;;;26.68;29.45;96926.28;5078984;28;20056;-73
2023/07/23 12:07:54;;;;;;;0.00;0.00;;;;;;;26.65;29.77;96931.59;5079600;28;20040;-73
2023/07/23 12:10:26;;;;;;;0.00;0.00;;;;;;;26.34;30.72;96928.84;5080130;28;20040;-73